Time,TemperatureF,DewpointF,PressureIn,WindDirection,WindDirectionDegrees,WindSpeedMPH,WindSpeedGustMPH,Humidity,HourlyPrecipIn,Conditions,Clouds,dailyrainin,SoftwareType,DateUTC
2013-01-03 00:02:00,27.0,20.0,-100.00,North,360,6.0,9.0,74,-99.99,,,-99.99,,2013-01-03 08:02:00,
2013-01-03 01:02:00,27.0,20.0,-100.00,North,5,6.0,9.0,74,-99.99,,,-99.99,,2013-01-03 09:02:00,
2013-01-03 01:12:00,27.0,20.0,-100.00,North,5,6.0,9.0,74,-99.99,,,-99.99,,2013-01-03 09:12:00,
2013-01-03 02:02:00,26.0,19.0,-100.00,South,170,5.0,9.0,74,-99.99,,,-99.99,,2013-01-03 10:02:00,
2013-01-03 03:02:00,26.0,19.0,-100.00,SSE,165,6.0,10.0,74,-99.99,,,-99.99,,2013-01-03 11:02:00,
2013-01-03 03:12:00,26.0,19.0,-100.00,SSE,165,6.0,10.0,74,-99.99,,,-99.99,,2013-01-03 11:12:00,
2013-01-03 04:02:00,26.0,19.0,-100.00,North,5,7.0,12.0,74,-99.99,,,-99.99,,2013-01-03 12:02:00,
2013-01-03 05:02:00,26.0,19.0,-100.00,South,175,7.0,10.0,74,-99.99,,,-99.99,,2013-01-03 13:02:00,
2013-01-03 05:12:00,26.0,19.0,-100.00,South,175,7.0,10.0,74,-99.99,,,-99.99,,2013-01-03 13:12:00,
2013-01-03 06:02:00,26.0,19.0,-100.00,SSE,165,5.0,12.0,74,-99.99,,,-99.99,,2013-01-03 14:02:00,
2013-01-03 06:10:00,26.0,19.0,-100.00,NNE,20,6.0,10.0,74,-99.99,,,-99.99,,2013-01-03 14:10:00,
2013-01-03 07:03:00,26.0,19.0,-100.00,NNE,20,6.0,10.0,74,-99.99,,,-99.99,,2013-01-03 15:03:00,
2013-01-03 08:03:00,26.0,18.0,-100.00,South,175,6.0,10.0,71,-99.99,,,-99.99,,2013-01-03 16:03:00,
2013-01-03 08:10:00,26.0,18.0,-100.00,North,360,6.0,9.0,71,-99.99,,,-99.99,,2013-01-03 16:10:00,
2013-01-03 09:00:00,26.0,18.0,-100.00,North,5,6.0,10.0,71,-99.99,,,-99.99,,2013-01-03 17:00:00,
2013-01-03 09:03:00,26.0,18.0,-100.00,North,360,6.0,9.0,71,-99.99,,,-99.99,,2013-01-03 17:03:00,
2013-01-03 10:10:00,26.0,18.0,-100.00,North,10,6.0,12.0,71,-99.99,,,-99.99,,2013-01-03 18:10:00,
2013-01-03 11:00:00,26.0,18.0,-100.00,South,180,8.0,13.0,71,-99.99,,,-99.99,,2013-01-03 19:00:00,
2013-01-03 11:03:00,26.0,18.0,-100.00,North,10,6.0,12.0,71,-99.99,,,-99.99,,2013-01-03 19:03:00,
2013-01-03 12:10:00,27.0,18.0,-100.00,South,175,7.0,12.0,68,-99.99,,,-99.99,,2013-01-03 20:10:00,
2013-01-03 13:02:00,27.0,18.0,-100.00,South,175,7.0,12.0,68,-99.99,,,-99.99,,2013-01-03 21:02:00,
2013-01-03 14:02:00,28.0,19.0,-100.00,SSE,150,6.0,9.0,68,-99.99,,,-99.99,,2013-01-03 22:02:00,
2013-01-03 14:10:00,27.0,19.0,-100.00,North,10,3.0,7.0,71,-99.99,,,-99.99,,2013-01-03 22:10:00,
2013-01-03 14:12:00,28.0,19.0,-100.00,SSE,150,6.0,9.0,68,-99.99,,,-99.99,,2013-01-03 22:12:00,
2013-01-03 15:02:00,27.0,19.0,-100.00,North,10,3.0,7.0,71,-99.99,,,-99.99,,2013-01-03 23:02:00,
2013-01-03 16:03:00,28.0,19.0,-100.00,SSE,155,2.0,6.0,68,-99.99,,,-99.99,,2013-01-04 00:03:00,
2013-01-03 16:12:00,28.0,19.0,-100.00,SSE,155,2.0,6.0,68,-99.99,,,-99.99,,2013-01-04 00:12:00,
2013-01-03 17:02:00,27.0,19.0,-100.00,South,170,3.0,6.0,71,-99.99,,,-99.99,,2013-01-04 01:02:00,
2013-01-03 18:02:00,27.0,20.0,-100.00,SE,145,3.0,6.0,74,-99.99,,,-99.99,,2013-01-04 02:02:00,
2013-01-03 18:12:00,27.0,20.0,-100.00,SE,145,3.0,6.0,74,-99.99,,,-99.99,,2013-01-04 02:12:00,
2013-01-03 19:02:00,26.0,20.0,-100.00,North,5,2.0,6.0,77,-99.99,,,-99.99,,2013-01-04 03:02:00,
2013-01-03 20:02:00,26.0,20.0,-100.00,ESE,120,1.0,2.0,77,-99.99,,,-99.99,,2013-01-04 04:02:00,
2013-01-03 20:12:00,26.0,20.0,-100.00,ESE,120,1.0,2.0,77,-99.99,,,-99.99,,2013-01-04 04:12:00,
2013-01-03 21:03:00,26.0,20.0,-100.00,North,360,3.0,5.0,77,-99.99,,,-99.99,,2013-01-04 05:03:00,
2013-01-03 22:02:00,26.0,20.0,-100.00,North,10,2.0,3.0,77,-99.99,,,-99.99,,2013-01-04 06:02:00,
2013-01-03 22:12:00,26.0,20.0,-100.00,North,10,2.0,3.0,77,-99.99,,,-99.99,,2013-01-04 06:12:00,